createdAt,value
2022-11-12T00:01:59.214Z,13.00
2022-11-12T00:04:44.490Z,13.65
2022-11-12T00:07:29.663Z,9.63
2022-11-12T00:10:15.386Z,12.35
2022-11-12T00:13:00.654Z,12.23
2022-11-12T00:15:46.978Z,11.68
2022-11-12T00:18:32.316Z,13.38
2022-11-12T00:21:17.473Z,13.88
2022-11-12T00:24:02.847Z,14.35
2022-11-12T00:26:48.091Z,14.20
2022-11-12T00:29:33.248Z,11.27
2022-11-12T00:32:18.470Z,11.88
2022-11-12T00:35:06.748Z,12.65
2022-11-12T00:37:56.899Z,13.20
2022-11-12T00:40:42.994Z,13.30
2022-11-12T00:43:28.387Z,13.57
2022-11-12T00:46:13.632Z,11.65
2022-11-12T00:48:58.995Z,11.85
2022-11-12T00:51:44.809Z,14.10
2022-11-12T00:54:30.121Z,10.65
2022-11-12T00:57:15.687Z,12.45
2022-11-12T01:00:00.859Z,12.77
2022-11-12T01:02:51.135Z,11.07
2022-11-12T01:05:36.784Z,11.50
2022-11-12T01:08:22.087Z,12.30
2022-11-12T01:11:11.291Z,15.07
2022-11-12T01:13:58.770Z,11.23
2022-11-12T01:16:44.024Z,12.73
2022-11-12T01:19:29.428Z,12.02
2022-11-12T01:22:14.834Z,11.38
2022-11-12T01:25:00.166Z,13.45
2022-11-12T01:27:45.423Z,12.38
2022-11-12T01:30:30.808Z,11.82
2022-11-12T01:33:16.036Z,13.05
2022-11-12T01:36:01.433Z,11.73
2022-11-12T01:38:47.492Z,11.70
2022-11-12T01:41:35.065Z,9.32
2022-11-12T01:44:22.756Z,10.15
2022-11-12T01:47:22.037Z,12.02
2022-11-12T01:50:07.755Z,9.77
2022-11-12T01:52:56.891Z,14.02
2022-11-12T01:55:42.351Z,10.65
2022-11-12T01:58:30.029Z,11.32
2022-11-12T02:01:15.498Z,12.43
2022-11-12T02:04:00.815Z,11.93
2022-11-12T02:06:47.267Z,10.35
2022-11-12T02:09:32.670Z,10.73
2022-11-12T02:12:36.667Z,8.95
2022-11-12T02:15:22.305Z,12.18
2022-11-12T02:18:07.637Z,12.43
2022-11-12T02:20:54.982Z,11.93
2022-11-12T02:23:40.264Z,12.52
2022-11-12T02:26:26.306Z,10.48
2022-11-12T02:29:11.864Z,11.38
2022-11-12T02:31:57.217Z,11.63
2022-11-12T02:34:42.529Z,12.02
2022-11-12T02:37:27.694Z,12.80
2022-11-12T02:40:13.144Z,14.23
2022-11-12T02:42:59.999Z,11.77
2022-11-12T02:45:45.980Z,11.98
2022-11-12T02:48:31.511Z,12.20
2022-11-12T02:51:16.674Z,13.50
2022-11-12T02:54:02.011Z,11.35
2022-11-12T02:56:47.324Z,10.73
2022-11-12T02:59:35.661Z,12.05
2022-11-12T03:02:20.982Z,11.20
2022-11-12T03:05:06.271Z,7.97
2022-11-12T03:07:56.468Z,12.23
2022-11-12T03:10:41.956Z,8.93
2022-11-12T03:13:27.416Z,9.57
2022-11-12T03:16:12.735Z,9.52
2022-11-12T03:18:57.967Z,10.90
2022-11-12T03:21:43.246Z,9.25
2022-11-12T03:24:29.162Z,8.73
2022-11-12T03:27:14.482Z,8.90
2022-11-12T03:29:59.888Z,9.93
2022-11-12T03:32:45.183Z,8.95
2022-11-12T03:35:30.654Z,10.02
2022-11-12T03:38:16.117Z,9.10
2022-11-12T03:41:01.304Z,8.07
2022-11-12T03:43:46.543Z,10.98
2022-11-12T03:46:31.916Z,11.10
2022-11-12T03:49:17.428Z,9.20
2022-11-12T03:52:02.841Z,9.90
2022-11-12T03:54:48.328Z,8.88
2022-11-12T03:57:37.382Z,9.20
2022-11-12T04:00:24.255Z,9.05
2022-11-12T04:03:09.341Z,7.95
2022-11-12T04:06:13.198Z,12.70
2022-11-12T04:08:58.760Z,8.55
2022-11-12T04:11:44.027Z,8.25
2022-11-12T04:14:29.264Z,8.05
2022-11-12T04:17:32.963Z,9.60
2022-11-12T04:20:37.266Z,10.05
2022-11-12T04:23:22.744Z,8.88
2022-11-12T04:26:26.092Z,7.90
2022-11-12T04:29:31.053Z,7.78
2022-11-12T04:32:19.148Z,8.95
2022-11-12T04:35:05.236Z,9.90
2022-11-12T04:37:50.527Z,10.30
2022-11-12T04:40:54.726Z,8.25
2022-11-12T04:43:59.003Z,9.27
2022-11-12T04:46:44.643Z,9.10
2022-11-12T04:49:29.888Z,9.18
2022-11-12T04:52:15.263Z,10.60
2022-11-12T04:55:00.677Z,6.93
2022-11-12T04:57:45.970Z,8.07
2022-11-12T05:00:31.679Z,7.57
2022-11-12T05:03:17.849Z,10.18
2022-11-12T05:06:05.102Z,8.30
2022-11-12T05:08:50.962Z,8.60
2022-11-12T05:11:36.214Z,7.90
2022-11-12T05:14:22.269Z,9.93
2022-11-12T05:17:07.710Z,9.07
2022-11-12T05:19:53.039Z,8.77
2022-11-12T05:22:44.281Z,6.65
2022-11-12T05:25:31.385Z,7.00
2022-11-12T05:28:16.661Z,7.13
2022-11-12T05:31:01.944Z,7.72
2022-11-12T05:33:47.177Z,7.72
2022-11-12T05:36:32.572Z,7.93
2022-11-12T05:39:17.942Z,6.70
2022-11-12T05:42:12.913Z,6.72
2022-11-12T05:44:59.109Z,6.80
2022-11-12T05:47:44.560Z,7.45
2022-11-12T05:50:34.979Z,7.35
2022-11-12T05:53:25.190Z,6.15
2022-11-12T05:56:11.193Z,7.53
2022-11-12T05:58:56.951Z,9.02
2022-11-12T06:01:44.266Z,8.02
2022-11-12T06:04:29.702Z,13.05
2022-11-12T06:07:14.972Z,8.43
2022-11-12T06:10:00.328Z,8.20
2022-11-12T06:12:45.615Z,7.05
2022-11-12T06:15:35.146Z,7.43
2022-11-12T06:18:24.484Z,8.45
2022-11-12T06:21:20.413Z,7.78
2022-11-12T06:24:06.138Z,7.78
2022-11-12T06:26:51.493Z,7.03
2022-11-12T06:29:38.689Z,9.00
2022-11-12T06:32:24.654Z,8.55
2022-11-12T06:35:09.767Z,7.88
2022-11-12T06:37:55.501Z,8.48
2022-11-12T06:40:41.898Z,7.53
2022-11-12T06:43:29.653Z,8.05
2022-11-12T06:46:16.407Z,7.72
2022-11-12T06:49:01.924Z,7.93
2022-11-12T06:51:47.188Z,9.65
2022-11-12T06:54:32.571Z,10.30
2022-11-12T06:57:17.770Z,12.65
2022-11-12T07:00:03.627Z,9.43
2022-11-12T07:02:49.435Z,6.75
2022-11-12T07:05:38.967Z,11.32
2022-11-12T07:08:24.559Z,8.82
2022-11-12T07:11:11.043Z,6.57
2022-11-12T07:13:56.622Z,8.80
2022-11-12T07:16:42.112Z,8.63
2022-11-12T07:19:27.286Z,10.75
2022-11-12T07:22:12.856Z,7.88
2022-11-12T07:24:58.875Z,8.75
2022-11-12T07:27:44.869Z,11.15
2022-11-12T07:30:30.303Z,9.35
2022-11-12T07:33:15.591Z,8.75
2022-11-12T07:36:06.011Z,15.07
2022-11-12T07:38:52.985Z,10.82
2022-11-12T07:41:38.248Z,11.68
2022-11-12T07:44:23.816Z,10.35
2022-11-12T07:47:09.162Z,10.10
2022-11-12T07:49:55.630Z,10.23
2022-11-12T07:52:41.254Z,9.38
2022-11-12T07:55:26.849Z,10.80
2022-11-12T07:58:12.447Z,13.40
2022-11-12T08:00:58.427Z,11.45
2022-11-12T08:03:43.708Z,11.20
2022-11-12T08:06:30.671Z,9.45
2022-11-12T08:09:16.295Z,10.48
2022-11-12T08:12:01.762Z,13.60
2022-11-12T08:14:47.009Z,9.07
2022-11-12T08:17:32.187Z,8.65
2022-11-12T08:20:17.520Z,9.38
2022-11-12T08:23:03.267Z,9.43
2022-11-12T08:25:49.147Z,9.95
2022-11-12T08:28:36.302Z,9.73
2022-11-12T08:31:23.011Z,9.68
2022-11-12T08:34:18.539Z,8.63
2022-11-12T08:37:07.779Z,7.40
2022-11-12T08:39:53.260Z,10.35
2022-11-12T08:42:39.604Z,8.90
2022-11-12T08:45:25.226Z,10.90
2022-11-12T08:48:16.211Z,11.95
2022-11-12T08:51:05.715Z,8.20
2022-11-12T08:53:51.486Z,8.43
2022-11-12T08:56:36.960Z,7.70
2022-11-12T08:59:22.243Z,8.50
2022-11-12T09:02:12.967Z,8.02
2022-11-12T09:04:58.484Z,7.88
2022-11-12T09:07:49.897Z,9.02
2022-11-12T09:10:36.957Z,8.25
2022-11-12T09:13:22.444Z,9.80
2022-11-12T09:16:09.455Z,8.23
2022-11-12T09:18:54.604Z,8.60
2022-11-12T09:21:40.002Z,7.15
2022-11-12T09:24:25.941Z,5.68
2022-11-12T09:27:10.997Z,9.45
2022-11-12T09:29:56.647Z,8.48
2022-11-12T09:32:41.989Z,6.28
2022-11-12T09:35:31.005Z,6.97
2022-11-12T09:38:17.981Z,6.00
2022-11-12T09:41:14.109Z,8.90
2022-11-12T09:44:04.933Z,13.55
2022-11-12T09:46:53.122Z,10.90
2022-11-12T09:49:48.124Z,9.50
2022-11-12T09:52:33.697Z,13.48
2022-11-12T09:55:36.389Z,13.60
2022-11-12T09:58:21.926Z,17.17
2022-11-12T10:01:15.398Z,14.68
2022-11-12T10:04:15.690Z,11.57
2022-11-12T10:07:06.600Z,16.85
2022-11-12T10:10:14.190Z,16.25
2022-11-12T10:13:25.288Z,15.15
2022-11-12T10:16:49.695Z,15.43
2022-11-12T10:19:38.207Z,15.80
2022-11-12T10:22:37.619Z,14.75
2022-11-12T10:25:25.173Z,14.02
2022-11-12T10:28:23.328Z,20.40
2022-11-12T10:31:18.510Z,21.20
2022-11-12T10:34:23.047Z,18.40
2022-11-12T10:37:22.778Z,21.55
2022-11-12T10:40:20.608Z,17.17
2022-11-12T10:43:21.533Z,16.75
2022-11-12T10:46:22.413Z,14.00
2022-11-12T10:49:17.631Z,20.95
2022-11-12T10:52:03.640Z,19.48
2022-11-12T10:54:54.856Z,20.58
2022-11-12T10:57:41.576Z,19.23
2022-11-12T11:00:27.365Z,19.75
2022-11-12T11:03:24.739Z,18.52
2022-11-12T11:06:16.375Z,19.77
2022-11-12T11:09:22.342Z,21.83
2022-11-12T11:12:23.662Z,19.75
2022-11-12T11:15:20.269Z,18.40
2022-11-12T11:18:10.490Z,18.25
2022-11-12T11:21:20.476Z,17.08
2022-11-12T11:24:11.828Z,16.77
2022-11-12T11:27:19.864Z,18.15
2022-11-12T11:30:10.804Z,15.65
2022-11-12T11:33:02.621Z,15.27
2022-11-12T11:35:59.391Z,15.45
2022-11-12T11:38:54.893Z,13.15
2022-11-12T11:41:49.490Z,15.60
2022-11-12T11:44:44.525Z,15.80
2022-11-12T11:47:59.866Z,17.33
2022-11-12T11:51:01.332Z,21.67
2022-11-12T11:53:50.067Z,21.15
2022-11-12T11:56:40.825Z,22.27
2022-11-12T11:59:56.987Z,28.40
2022-11-12T12:03:07.321Z,22.92
2022-11-12T12:06:01.822Z,24.00
2022-11-12T12:08:59.925Z,22.45
2022-11-12T12:11:58.003Z,18.92
2022-11-12T12:14:46.231Z,20.42
2022-11-12T12:17:44.158Z,14.55
2022-11-12T12:20:40.181Z,15.48
2022-11-12T12:23:33.405Z,19.60
2022-11-12T12:26:33.332Z,16.00
2022-11-12T12:29:36.768Z,19.60
2022-11-12T12:32:27.830Z,15.35
2022-11-12T12:35:23.247Z,12.02
2022-11-12T12:38:15.948Z,15.18
2022-11-12T12:41:33.264Z,15.73
2022-11-12T12:44:18.534Z,13.20
2022-11-12T12:47:04.194Z,12.68
2022-11-12T12:49:50.268Z,13.27
2022-11-12T12:53:25.369Z,14.15
2022-11-12T12:56:11.288Z,11.55
2022-11-12T12:58:58.430Z,15.75
2022-11-12T13:01:44.072Z,13.57
2022-11-12T13:04:55.705Z,15.98
2022-11-12T13:07:51.021Z,14.23
2022-11-12T13:10:41.516Z,15.10
2022-11-12T13:13:33.027Z,16.67
2022-11-12T13:16:54.071Z,16.95
2022-11-12T13:19:53.115Z,15.10
2022-11-12T13:22:38.634Z,16.35
2022-11-12T13:25:29.563Z,14.85
2022-11-12T13:28:14.991Z,14.93
2022-11-12T13:31:02.168Z,14.35
2022-11-12T13:33:48.628Z,13.48
2022-11-12T13:36:34.575Z,14.55
2022-11-12T13:39:20.642Z,16.30
2022-11-12T13:42:36.511Z,13.70
2022-11-12T13:45:24.217Z,14.02
2022-11-12T13:48:13.969Z,17.17
2022-11-12T13:51:02.872Z,12.68
2022-11-12T13:53:48.238Z,15.75
2022-11-12T13:56:35.444Z,12.95
2022-11-12T13:59:23.092Z,14.43
2022-11-12T14:02:19.094Z,18.38
2022-11-12T14:05:13.164Z,15.05
2022-11-12T14:08:21.811Z,17.90
2022-11-12T14:11:35.663Z,20.38
2022-11-12T14:14:26.642Z,15.23
2022-11-12T14:17:49.147Z,17.40
2022-11-12T14:20:37.163Z,15.45
2022-11-12T14:23:25.093Z,16.15
2022-11-12T14:26:12.848Z,15.05
2022-11-12T14:28:58.362Z,15.38
2022-11-12T14:31:44.291Z,18.25
2022-11-12T14:34:33.153Z,18.35
2022-11-12T14:37:42.911Z,23.30
2022-11-12T14:40:29.879Z,19.65
2022-11-12T14:43:38.971Z,17.85
2022-11-12T14:46:38.748Z,15.77
2022-11-12T14:49:34.343Z,19.00
2022-11-12T14:52:27.904Z,13.32
2022-11-12T14:55:20.187Z,13.55
2022-11-12T14:58:05.915Z,17.02
2022-11-12T15:00:53.608Z,24.38
2022-11-12T15:03:48.555Z,20.75
2022-11-12T15:06:38.127Z,20.48
2022-11-12T15:09:36.468Z,27.52
2022-11-12T15:12:31.688Z,23.30
2022-11-12T15:15:26.642Z,19.30
2022-11-12T15:18:18.962Z,14.73
2022-11-12T15:21:18.414Z,15.07
2022-11-12T15:24:35.039Z,15.60
2022-11-12T15:27:39.129Z,17.45
2022-11-12T15:30:27.603Z,16.45
2022-11-12T15:33:13.799Z,17.30
2022-11-12T15:36:00.395Z,16.25
2022-11-12T15:38:53.268Z,13.18
2022-11-12T15:41:39.125Z,13.38
2022-11-12T15:44:24.570Z,13.70
2022-11-12T15:47:18.354Z,12.30
2022-11-12T15:50:16.584Z,13.88
2022-11-12T15:53:01.808Z,14.00
2022-11-12T15:55:47.479Z,13.27
2022-11-12T15:58:34.726Z,14.30
2022-11-12T16:01:20.193Z,14.63
2022-11-12T16:04:05.445Z,19.02
2022-11-12T16:06:50.852Z,15.13
2022-11-12T16:09:36.151Z,16.95
2022-11-12T16:12:21.471Z,13.98
2022-11-12T16:15:16.569Z,16.48
2022-11-12T16:18:02.176Z,11.45
2022-11-12T16:20:48.708Z,10.63
2022-11-12T16:23:34.314Z,11.85
2022-11-12T16:26:24.582Z,13.20
2022-11-12T16:29:13.093Z,14.77
2022-11-12T16:31:58.323Z,10.82
2022-11-12T16:34:43.782Z,12.35
2022-11-12T16:37:29.096Z,10.82
2022-11-12T16:40:23.472Z,11.90
2022-11-12T16:43:09.089Z,12.63
2022-11-12T16:45:54.603Z,14.43
2022-11-12T16:48:39.998Z,11.73
2022-11-12T16:51:25.376Z,14.57
2022-11-12T16:54:10.770Z,14.70
2022-11-12T16:56:56.856Z,13.23
2022-11-12T16:59:42.237Z,13.73
2022-11-12T17:02:27.553Z,18.10
2022-11-12T17:05:20.198Z,13.32
2022-11-12T17:08:05.564Z,15.90
2022-11-12T17:10:51.022Z,16.50
2022-11-12T17:13:38.989Z,20.17
2022-11-12T17:16:24.371Z,14.20
2022-11-12T17:19:09.897Z,15.40
2022-11-12T17:21:55.522Z,21.92
2022-11-12T17:24:40.901Z,13.60
2022-11-12T17:27:26.372Z,14.20
2022-11-12T17:30:12.186Z,15.25
2022-11-12T17:32:59.625Z,16.48
2022-11-12T17:35:44.876Z,14.07
2022-11-12T17:38:30.442Z,12.27
2022-11-12T17:41:15.828Z,12.48
2022-11-12T17:44:01.943Z,13.05
2022-11-12T17:46:47.706Z,13.05
2022-11-12T17:49:33.097Z,12.07
2022-11-12T17:52:18.692Z,13.05
2022-11-12T17:55:04.180Z,16.92
2022-11-12T17:57:49.427Z,23.23
2022-11-12T18:00:36.692Z,24.45
2022-11-12T18:03:21.924Z,24.88
2022-11-12T18:06:12.519Z,16.63
2022-11-12T18:09:00.082Z,21.17
2022-11-12T18:11:48.319Z,20.27
2022-11-12T18:14:33.693Z,18.27
2022-11-12T18:17:19.457Z,20.08
2022-11-12T18:20:05.706Z,18.08
2022-11-12T18:22:50.814Z,20.58
2022-11-12T18:25:38.502Z,17.00
2022-11-12T18:28:24.075Z,19.42
2022-11-12T18:31:12.244Z,18.10
2022-11-12T18:33:58.073Z,22.15
2022-11-12T18:36:44.398Z,17.85
2022-11-12T18:39:31.004Z,18.92
2022-11-12T18:42:16.451Z,18.92
2022-11-12T18:45:01.847Z,20.70
2022-11-12T18:47:47.217Z,22.00
2022-11-12T18:50:32.667Z,20.73
2022-11-12T18:53:18.159Z,19.48
2022-11-12T18:56:07.273Z,20.58
2022-11-12T18:58:52.844Z,25.30
2022-11-12T19:01:38.374Z,24.60
2022-11-12T19:04:23.878Z,23.67
2022-11-12T19:07:09.766Z,22.23
2022-11-12T19:09:55.430Z,25.02
2022-11-12T19:12:40.773Z,20.17
2022-11-12T19:15:27.123Z,15.68
2022-11-12T19:18:14.230Z,16.00
2022-11-12T19:21:20.271Z,16.38
2022-11-12T19:24:05.839Z,17.80
2022-11-12T19:26:51.735Z,15.27
2022-11-12T19:29:36.729Z,17.55
2022-11-12T19:32:22.920Z,17.13
2022-11-12T19:35:08.904Z,17.23
2022-11-12T19:37:54.185Z,16.88
2022-11-12T19:40:39.797Z,18.17
2022-11-12T19:43:25.111Z,19.00
2022-11-12T19:46:11.143Z,19.05
2022-11-12T19:48:57.012Z,20.92
2022-11-12T19:51:42.788Z,22.88
2022-11-12T19:54:28.415Z,19.50
2022-11-12T19:57:13.792Z,22.20
2022-11-12T19:59:59.237Z,17.55
2022-11-12T20:02:44.643Z,23.17
2022-11-12T20:05:30.478Z,22.48
2022-11-12T20:08:15.710Z,28.13
2022-11-12T20:11:01.543Z,26.90
2022-11-12T20:13:47.222Z,21.05
2022-11-12T20:16:33.179Z,22.30
2022-11-12T20:19:19.724Z,25.70
2022-11-12T20:22:05.249Z,27.20
2022-11-12T20:24:50.621Z,24.98
2022-11-12T20:27:35.993Z,27.20
2022-11-12T20:30:21.370Z,28.98
2022-11-12T20:33:06.863Z,26.83
2022-11-12T20:35:52.150Z,29.58
2022-11-12T20:38:38.841Z,29.17
2022-11-12T20:41:26.044Z,28.75
2022-11-12T20:44:11.600Z,27.55
2022-11-12T20:46:58.291Z,29.38
2022-11-12T20:49:43.648Z,26.55
2022-11-12T20:52:29.242Z,25.77
2022-11-12T20:55:14.698Z,29.38
2022-11-12T20:58:00.273Z,27.17
2022-11-12T21:00:45.886Z,31.50
2022-11-12T21:03:31.557Z,27.95
2022-11-12T21:06:19.666Z,31.50
2022-11-12T21:09:04.843Z,33.33
2022-11-12T21:11:50.099Z,31.67
2022-11-12T21:14:35.280Z,33.38
2022-11-12T21:17:20.842Z,30.52
2022-11-12T21:20:06.686Z,28.33
2022-11-12T21:22:51.805Z,31.25
2022-11-12T21:25:40.820Z,34.17
2022-11-12T21:28:26.362Z,32.38
2022-11-12T21:31:14.557Z,30.02
2022-11-12T21:34:03.740Z,32.85
2022-11-12T21:36:48.914Z,31.92
2022-11-12T21:39:34.161Z,30.77
2022-11-12T21:42:19.487Z,33.03
2022-11-12T21:45:06.513Z,31.85
2022-11-12T21:47:53.409Z,28.48
2022-11-12T21:50:39.297Z,32.33
2022-11-12T21:53:24.976Z,35.38
2022-11-12T21:56:12.934Z,29.33
2022-11-12T21:59:01.668Z,32.28
2022-11-12T22:01:46.982Z,32.50
2022-11-12T22:04:32.570Z,35.95
2022-11-12T22:07:18.465Z,34.35
2022-11-12T22:10:03.895Z,29.58
2022-11-12T22:13:11.962Z,32.50
2022-11-12T22:15:54.707Z,32.35
2022-11-12T22:18:41.774Z,33.20
2022-11-12T22:21:30.672Z,30.80
2022-11-12T22:24:18.020Z,32.65
2022-11-12T22:27:05.671Z,34.92
2022-11-12T22:29:52.018Z,35.00
2022-11-12T22:32:37.294Z,30.17
2022-11-12T22:35:22.554Z,32.35
2022-11-12T22:38:07.775Z,30.50
2022-11-12T22:40:53.309Z,29.17
2022-11-12T22:43:38.781Z,30.50
2022-11-12T22:46:26.451Z,31.15
2022-11-12T22:49:12.229Z,30.10
2022-11-12T22:51:58.489Z,31.10
2022-11-12T22:54:44.023Z,32.85
2022-11-12T22:57:29.337Z,29.05
2022-11-12T23:00:15.314Z,26.25
2022-11-12T23:03:01.232Z,28.83
2022-11-12T23:05:46.747Z,31.75
2022-11-12T23:08:32.860Z,31.40
2022-11-12T23:11:19.918Z,31.10
2022-11-12T23:14:05.604Z,32.20
2022-11-12T23:16:51.809Z,32.70
2022-11-12T23:19:37.582Z,29.83
2022-11-12T23:22:22.994Z,31.45
2022-11-12T23:25:09.260Z,29.58
2022-11-12T23:27:54.646Z,35.10
2022-11-12T23:30:39.908Z,31.50
2022-11-12T23:33:25.431Z,34.20
2022-11-12T23:36:11.420Z,32.15
2022-11-12T23:38:58.432Z,31.33
2022-11-12T23:41:44.143Z,30.83
2022-11-12T23:44:29.480Z,29.70
2022-11-12T23:47:17.748Z,33.83
2022-11-12T23:50:03.362Z,31.58
2022-11-12T23:52:48.886Z,28.77
2022-11-12T23:55:38.455Z,31.00
2022-11-12T23:58:24.592Z,31.23
